กรุงเทพมหานคร, ประเทศไทย

12:38 PM ICT วัน กันยายน 18, 2014 (GMT +0700)
Khu Khot | Change Station
CLOSE
Current Station
Personal Weather Stations
Location: Pathum Thani, PATHUM THANI
Elevation: 15 ft
Nearby Weather Stations

Elev 15 ft 13.96 °N, 100.65 °E | Updated 14 seconds ago

Mostly Cloudy
มีเมฆคลุมเป็นส่วนใหญ่
91.6 ฟาเรนไฮน์
Feels Like 104 ฟาเรนไฮน์
N
1.1
ลม ความผันแปร ลม from ทางทิศตะวันออก
Gusts 4.3 mph

วันนี้
High -- | Low -- ฟาเรนไฮน์
--% Chance of Precip.
Yesterday
High -- | Low -- ฟาเรนไฮน์
Precip. -- นิ้ว
6:06 AM 6:17 PM
เดือนเสี้ยว, 30% visible
ความดัน 29.83 นิ้ว
ทัศนวิสัย 6.2 ไมล์
เมฆ Few 2000 ft
มีเมฆคลุมเป็นบางส่วน 3500 ft
มีเมฆคลุมเป็นส่วนใหญ่ 30000 ft
ดัชนีความร้อน 104 ฟาเรนไฮน์
อุณหภูมิที่อากาศอาจจับตัวเป็นหยาดน้ำค้าง 76 ฟาเรนไฮน์
ความชื้น 61%
Rainfall 0.00 นิ้ว
Snow Depth Not available.
UV 9 out of 12
Pollen Not available.
Air Quality Not available.
Flu Activity Not available.
METAR VTBS 180530Z 18014KT 9999 FEW020 SCT035 BKN300 31/24 Q1010 NOSIG

More Conditions Fewer Conditions

ความดัน 29.83 นิ้ว
ทัศนวิสัย 6.2 ไมล์
เมฆ Few 2000 ft
มีเมฆคลุมเป็นบางส่วน 3500 ft
มีเมฆคลุมเป็นส่วนใหญ่ 30000 ft
ดัชนีความร้อน 104 ฟาเรนไฮน์
อุณหภูมิที่อากาศอาจจับตัวเป็นหยาดน้ำค้าง 76 ฟาเรนไฮน์
ความชื้น 61%
Rainfall 0.00 นิ้ว
Snow Depth Not available.
UV 9 out of 12
Pollen Not available.
Air Quality Not available.
Flu Activity Not available.
METAR VTBS 180530Z 18014KT 9999 FEW020 SCT035 BKN300 31/24 Q1010 NOSIG

More Conditions Fewer Conditions

10-Day Weather Forecast

Almanac

ดาราศาสตร์

Sep. 18, 2014 Rise Set
Actual Time 6:06 AM ICT 6:17 PM ICT
Civil Twilight 5:45 AM ICT 6:38 PM ICT
Nautical Twilight 5:20 AM ICT 7:03 PM ICT
Astronomical Twilight 4:55 AM ICT 7:27 PM ICT
Moon 1:10 AM ICT 2:09 PM ICT
Length Of Visible Light 12h 53m
ความยาวของวัน
12h 10m
Tomorrow will be 0m 46s shorter.
เดือนเสี้ยว, 30% of the Moon is Illuminated
วันนี้
เดือนเสี้ยว
Sep 24
New
Oct 1
ไตรมาสแรก
Oct 8
พระจันทร์เต็มดวง
Oct 15
ไตรมาสล่าสุด

Yesterday's Extremes

Country Highs Country Lows

Community

WunderPhotos

Upload Photos

1,754,292 photos uploaded!

Nearby

Snow Depth

Not available.

Earthquake Activity

City Distance Mag. Time & Date
No recent earthquake activity has been reported nearby.
Minimum magnitude displayed is 2.5.

Coastal Water Temperatures

สถานที่ อุณหภูมิ
No Stations Reporting

Nearby Weather Stations